WYE weather

Yengema Airport
Yengema, Eastern Province, Sierra Leone

Public forecast

Using degrees Celsius for public forecast. Weather courtesy of forecast.io.

Closest aviation weather report (METAR) to Yengema Airport

Report is more than 2 hours old.

Closest report is Lungi International Airport, 127.6 nm (236.4 km) W. Retrieved 2020/01/25 14:00 UTC (3 hours ago):

GFLL 251400Z 31004KT 7000 HZ SCT013 30/23 Q1010

Closest aviation forecast (TAF) to Yengema Airport

Closest forecast is Lungi International Airport, 127.6 nm (236.4 km) W. Retrieved 2020/01/25 12:00 UTC (5 hours ago):

TAF GFLL 251100Z 2512/2618 33008KT 6000 HZ SCT012 BECMG 2513/2515 06010KT FEW014 PROB30 TEMPO 2517/2519 12006KT 8000 -HZ NSC TEMPO 2522/2602 09004KT PROB40 TEMPO 2504/2508 VRB02KT 4000 BR SCT012